Time;durP1;ratioP1;P1;durP2;ratioP2;P2;SDS_P1;SDS_P2;PMS_P1;PMS_P2;Temp;Humidity;BMP_temperature;BMP_pressure;BME280_temperature;BME280_humidity;BME280_pressure;Samples;Min_cycle;Max_cycle;Signal;HPM_P1;HPM_P2
2024/02/19 00:01:38;;;;;;;;;;;8.30;99.90;;;;;;5042337;28;20043;-88
2024/02/19 00:04:05;;;;;;;;;;;8.20;99.90;;;;;;5042880;28;19960;-88
2024/02/19 00:06:32;;;;;;;;;;;8.40;99.90;;;;;;5043300;28;19937;-88
2024/02/19 00:09:00;;;;;;;;;;;8.30;99.90;;;;;;5043866;28;19985;-87
2024/02/19 00:11:26;;;;;;;;;;;8.30;99.90;;;;;;5060785;28;19963;-85
2024/02/19 00:13:53;;;;;;;;;;;8.30;99.90;;;;;;5060284;28;19968;-87
2024/02/19 00:16:20;;;;;;;;;;;8.30;99.90;;;;;;5047485;28;19928;-87
2024/02/19 00:18:46;;;;;;;;;;;8.40;99.90;;;;;;5057692;28;19921;-86
2024/02/19 00:21:16;;;;;;;;;;;8.40;99.90;;;;;;5050103;28;19968;-86
2024/02/19 00:23:43;;;;;;;;;;;8.30;99.90;;;;;;5046964;28;19971;-86
2024/02/19 00:26:11;;;;;;;;;;;8.30;99.90;;;;;;5041727;28;19921;-86
2024/02/19 00:28:37;;;;;;;;;;;8.30;99.90;;;;;;5042781;28;19946;-86
2024/02/19 00:31:04;;;;;;;;;;;8.40;99.90;;;;;;5053625;28;19912;-85
2024/02/19 00:33:38;;;;;;;;;;;8.40;99.90;;;;;;5060947;28;19928;-86
2024/02/19 00:36:11;;;;;;;;;;;8.30;99.90;;;;;;5061309;28;19905;-84
2024/02/19 00:41:41;;;;;;;;;;;8.30;99.90;;;;;;5058764;28;19937;-84
2024/02/19 00:44:16;;;;;;;;;;;8.50;99.90;;;;;;5053342;28;19940;-86
2024/02/19 00:49:42;;;;;;;;;;;8.40;99.90;;;;;;5050299;28;19944;-87
2024/02/19 00:52:19;;;;;;;;;;;8.40;99.90;;;;;;5044096;28;19986;-87
2024/02/19 00:54:45;;;;;;;;;;;8.40;99.90;;;;;;5044294;28;19943;-87
2024/02/19 00:57:13;;;;;;;;;;;8.40;99.90;;;;;;5041656;28;19955;-87
2024/02/19 00:59:40;;;;;;;;;;;8.40;99.90;;;;;;5043026;28;19967;-87
2024/02/19 01:02:07;;;;;;;;;;;8.40;99.90;;;;;;5042723;28;20049;-87
2024/02/19 01:04:35;;;;;;;;;;;8.40;99.90;;;;;;5042391;28;20010;-88
2024/02/19 01:07:01;;;;;;;;;;;8.40;99.90;;;;;;5041493;28;19928;-87
2024/02/19 01:09:28;;;;;;;;;;;8.40;99.90;;;;;;5041958;28;20396;-87
2024/02/19 01:11:55;;;;;;;;;;;8.40;99.90;;;;;;5041740;28;20332;-89
2024/02/19 01:14:23;;;;;;;;;;;8.30;99.90;;;;;;5041938;28;19925;-87
2024/02/19 01:16:50;;;;;;;;;;;8.50;99.90;;;;;;5041945;28;20385;-87
2024/02/19 01:19:16;;;;;;;;;;;8.40;99.90;;;;;;5041437;28;19964;-87
2024/02/19 01:21:43;;;;;;;;;;;8.70;99.90;;;;;;5041428;28;20341;-87
2024/02/19 01:24:10;;;;;;;;;;;8.40;99.90;;;;;;5041647;28;20137;-87
2024/02/19 01:26:36;;;;;;;;;;;8.40;99.90;;;;;;5042063;28;19964;-89
2024/02/19 01:29:03;;;;;;;;;;;8.50;99.90;;;;;;5043983;28;19939;-89
2024/02/19 01:31:31;;;;;;;;;;;8.40;99.90;;;;;;5044833;28;19921;-87
2024/02/19 01:33:58;;;;;;;;;;;8.50;99.90;;;;;;5042616;28;19967;-87
2024/02/19 01:36:25;;;;;;;;;;;8.40;99.90;;;;;;5045679;28;19920;-87
2024/02/19 01:38:52;;;;;;;;;;;8.40;99.90;;;;;;5045127;28;19990;-88
2024/02/19 01:41:19;;;;;;;;;;;8.40;99.90;;;;;;5044610;28;19945;-88
2024/02/19 01:43:45;;;;;;;;;;;8.50;99.90;;;;;;5047949;28;19955;-87
2024/02/19 01:46:14;;;;;;;;;;;8.50;99.90;;;;;;5040423;28;20430;-88
2024/02/19 01:48:42;;;;;;;;;;;8.10;99.90;;;;;;5041637;28;19921;-88
2024/02/19 01:51:09;;;;;;;;;;;8.50;99.90;;;;;;5040678;28;19984;-87
2024/02/19 01:53:36;;;;;;;;;;;8.60;99.90;;;;;;5041126;28;19969;-87
2024/02/19 01:56:03;;;;;;;;;;;8.70;99.90;;;;;;5040770;28;19960;-88
2024/02/19 01:58:30;;;;;;;;;;;8.50;99.90;;;;;;5045609;28;19988;-86
2024/02/19 02:00:58;;;;;;;;;;;8.60;99.90;;;;;;5056505;28;20030;-87
2024/02/19 02:03:25;;;;;;;;;;;8.70;99.90;;;;;;5054805;28;19921;-88
2024/02/19 02:05:53;;;;;;;;;;;8.60;99.90;;;;;;5060371;28;19946;-86
2024/02/19 02:08:20;;;;;;;;;;;8.60;99.90;;;;;;5060266;28;19905;-86
2024/02/19 02:10:47;;;;;;;;;;;8.50;99.90;;;;;;5059975;28;20028;-84
2024/02/19 02:13:13;;;;;;;;;;;8.60;99.90;;;;;;5059970;28;19977;-86
2024/02/19 02:15:40;;;;;;;;;;;8.60;99.90;;;;;;5058572;28;19923;-87
2024/02/19 02:18:07;;;;;;;;;;;8.50;99.90;;;;;;5057777;28;19932;-87
2024/02/19 02:20:33;;;;;;;;;;;7.80;99.90;;;;;;5054835;28;19973;-87
2024/02/19 02:23:03;;;;;;;;;;;8.50;99.90;;;;;;5058280;28;19970;-87
2024/02/19 02:25:29;;;;;;;;;;;8.60;99.90;;;;;;5059061;28;19909;-88
2024/02/19 02:28:00;;;;;;;;;;;8.30;99.90;;;;;;5056006;28;19925;-86
2024/02/19 02:30:27;;;;;;;;;;;8.60;99.90;;;;;;5052548;28;19988;-88
2024/02/19 02:32:55;;;;;;;;;;;8.50;99.90;;;;;;5054889;28;19986;-87
2024/02/19 02:35:22;;;;;;;;;;;8.40;99.90;;;;;;5057212;28;19928;-88
2024/02/19 02:37:49;;;;;;;;;;;8.70;99.90;;;;;;5058129;28;19921;-87
2024/02/19 02:40:16;;;;;;;;;;;8.50;99.90;;;;;;5042853;28;20046;-88
2024/02/19 02:42:43;;;;;;;;;;;8.50;99.90;;;;;;5041517;28;19928;-87
2024/02/19 02:45:11;;;;;;;;;;;8.50;99.90;;;;;;5040720;28;19921;-88
2024/02/19 02:47:38;;;;;;;;;;;8.50;99.90;;;;;;5040115;28;19987;-87
2024/02/19 02:50:05;;;;;;;;;;;;;;;;;;5040173;28;19940;-88
2024/02/19 02:52:32;;;;;;;;;;;;;;;;;;5039941;28;20370;-88
2024/02/19 02:54:59;;;;;;;;;;;;;;;;;;5039463;28;20364;-87
2024/02/19 02:57:26;;;;;;;;;;;;;;;;;;5040464;28;20007;-87
2024/02/19 02:59:53;;;;;;;;;;;;;;;;;;5042308;28;20414;-86
2024/02/19 03:02:20;;;;;;;;;;;;;;;;;;5040017;28;20437;-87
2024/02/19 03:04:47;;;;;;;;;;;;;;;;;;5041272;28;19951;-87
2024/02/19 03:07:14;;;;;;;;;;;;;;;;;;5041336;28;19942;-86
2024/02/19 03:09:41;;;;;;;;;;;;;;;;;;5039158;28;20064;-86
2024/02/19 03:12:08;;;;;;;;;;;;;;;;;;5057638;28;19947;-87
2024/02/19 03:14:35;;;;;;;;;;;;;;;;;;5056686;28;19931;-87
2024/02/19 03:17:01;;;;;;;;;;;;;;;;;;5038553;28;19953;-88
2024/02/19 03:19:28;;;;;;;;;;;;;;;;;;5036821;28;20051;-87
2024/02/19 03:21:56;;;;;;;;;;;;;;;;;;5039389;28;20001;-89
2024/02/19 03:24:23;;;;;;;;;;;;;;;;;;5058295;28;19944;-87
2024/02/19 03:26:50;;;;;;;;;;;;;;;;;;5051789;28;19925;-84
2024/02/19 03:29:17;;;;;;;;;;;;;;;;;;5058948;28;19980;-86
2024/02/19 03:31:46;;;;;;;;;;;;;;;;;;5047812;28;19955;-87
2024/02/19 03:34:13;;;;;;;;;;;;;;;;;;5042690;28;19960;-86
2024/02/19 03:36:41;;;;;;;;;;;;;;;;;;5056679;28;19931;-87
2024/02/19 03:39:08;;;;;;;;;;;;;;;;;;5058780;28;19931;-84
2024/02/19 03:41:35;;;;;;;;;;;;;;;;;;5058744;28;19943;-84
2024/02/19 03:44:02;;;;;;;;;;;;;;;;;;5057107;28;19912;-87
2024/02/19 03:46:30;;;;;;;;;;;;;;;;;;5056576;28;19946;-86
2024/02/19 03:48:57;;;;;;;;;;;;;;;;;;5056841;28;19976;-87
2024/02/19 03:51:24;;;;;;;;;;;;;;;;;;5056874;28;19940;-84
2024/02/19 03:53:51;;;;;;;;;;;;;;;;;;5056378;28;19986;-87
2024/02/19 03:56:18;;;;;;;;;;;;;;;;;;5055982;28;19925;-87
2024/02/19 03:58:45;;;;;;;;;;;;;;;;;;5041822;28;20042;-87
2024/02/19 04:01:13;;;;;;;;;;;;;;;;;;5040812;28;20023;-89
2024/02/19 04:03:40;;;;;;;;;;;;;;;;;;5038997;28;19959;-87
2024/02/19 04:06:07;;;;;;;;;;;;;;;;;;5043367;28;19999;-88
2024/02/19 04:08:34;;;;;;;;;;;;;;;;;;5047572;28;19969;-87
2024/02/19 04:11:01;;;;;;;;;;;;;;;;;;5045887;28;19960;-87
2024/02/19 04:13:28;;;;;;;;;;;;;;;;;;5044223;28;19998;-86
2024/02/19 04:15:55;;;;;;;;;;;;;;;;;;5045488;28;20009;-88
2024/02/19 04:18:22;;;;;;;;;;;;;;;;;;5046259;28;20006;-88
2024/02/19 04:20:48;;;;;;;;;;;;;;;;;;5048613;28;19939;-86
2024/02/19 04:23:15;;;;;;;;;;;;;;;;;;5059965;28;20012;-87
2024/02/19 04:25:43;;;;;;;;;;;;;;;;;;5054701;28;19936;-87
2024/02/19 04:28:10;;;;;;;;;;;;;;;;;;5046245;28;19939;-87
2024/02/19 04:30:37;;;;;;;;;;;;;;;;;;5046429;28;20482;-87
2024/02/19 04:33:04;;;;;;;;;;;;;;;;;;5045601;28;19957;-88
2024/02/19 04:35:31;;;;;;;;;;;;;;;;;;5044987;28;19938;-87
2024/02/19 04:37:58;;;;;;;;;;;;;;;;;;5044861;28;20047;-87
2024/02/19 04:40:25;;;;;;;;;;;;;;;;;;5049126;28;19985;-86
2024/02/19 04:42:52;;;;;;;;;;;;;;;;;;5045020;28;20003;-88
2024/02/19 04:45:19;;;;;;;;;;;;;;;;;;5047992;28;19962;-87
2024/02/19 04:47:46;;;;;;;;;;;;;;;;;;5053220;28;19988;-86
2024/02/19 04:50:13;;;;;;;;;;;;;;;;;;5055485;28;19921;-85
2024/02/19 05:51:08;;;;;;;;;;;;;;;;;;;;;
2024/02/19 06:02:19;;;;;;;;;;;;;;;;;;4958020;28;19933;-88
2024/02/19 07:49:22;;;;;;;;;;;;;;;;;;3424482;22;20015;-85
2024/02/19 07:51:51;;;;;;;;;;;;;;;;;;5046816;28;19962;-85
2024/02/19 07:54:18;;;;;;;;;;;;;;;;;;5045199;28;19951;-84
2024/02/19 07:56:45;;;;;;;;;;;;;;;;;;5045798;28;19991;-84
2024/02/19 07:59:12;;;;;;;;;;;;;;;;;;5050384;28;20038;-84
2024/02/19 08:01:39;;;;;;;;;;;;;;;;;;5052389;28;19989;-83
2024/02/19 11:38:39;;;;;;;;;;;;;;;;;;;;;
2024/02/19 14:07:24;;;;;;;;;;;8.70;1.00;;;;;;5742949;23;19994;-85
2024/02/19 14:09:51;;;;;;;;;;;8.60;1.00;;;;;;5024472;28;19951;-84
2024/02/19 14:12:18;;;;;;;;;;;8.70;1.00;;;;;;5029015;28;19921;-87
2024/02/19 14:14:44;;;;;;;;;;;8.80;1.00;;;;;;5026378;28;20425;-87
2024/02/19 14:17:12;;;;;;;;;;;9.00;1.00;;;;;;5022080;28;20322;-87
2024/02/19 14:19:38;;;;;;;;;;;8.90;1.00;;;;;;5022957;28;19971;-88
2024/02/19 15:11:03;;;;;;;;;;;9.50;1.00;;;;;;4993583;23;19955;-88
2024/02/19 15:13:30;;;;;;;;;;;9.20;99.90;;;;;;5024397;28;19942;-88
2024/02/19 15:16:00;;;;;;;;;;;9.40;1.00;;;;;;5024048;28;20039;-86
2024/02/19 15:18:27;;;;;;;;;;;9.50;76.90;;;;;;5024364;28;19965;-86
2024/02/19 15:20:54;;;;;;;;;;;9.60;1.40;;;;;;5023449;28;20433;-86
2024/02/19 15:23:20;;;;;;;;;;;9.60;79.00;;;;;;5023738;28;19952;-87
2024/02/19 15:25:47;;;;;;;;;;;9.50;1.00;;;;;;5026107;28;19944;-87
2024/02/19 15:28:15;;;;;;;;;;;9.60;17.90;;;;;;5024333;28;20015;-86
2024/02/19 15:30:42;;;;;;;;;;;9.80;29.50;;;;;;5026288;28;19990;-86
2024/02/19 15:33:10;;;;;;;;;;;9.70;99.50;;;;;;5024792;28;20049;-87
2024/02/19 15:35:36;;;;;;;;;;;9.50;1.00;;;;;;5024031;28;20004;-87
2024/02/19 15:38:03;;;;;;;;;;;9.40;67.30;;;;;;5026884;28;19986;-87
2024/02/19 15:40:30;;;;;;;;;;;9.50;99.90;;;;;;5029541;28;19970;-86
2024/02/19 15:42:56;;;;;;;;;;;9.40;99.90;;;;;;5026292;28;20038;-85
2024/02/19 15:45:25;;;;;;;;;;;9.30;99.90;;;;;;5030442;28;19943;-87
2024/02/19 15:47:51;;;;;;;;;;;9.30;99.90;;;;;;5031712;28;19962;-86
2024/02/19 15:50:18;;;;;;;;;;;9.20;99.90;;;;;;5030257;28;20002;-88
2024/02/19 15:52:45;;;;;;;;;;;9.10;1.00;;;;;;5032663;28;19941;-87
2024/02/19 15:55:12;;;;;;;;;;;9.00;1.00;;;;;;5026090;28;19954;-87
2024/02/19 15:57:38;;;;;;;;;;;9.00;1.00;;;;;;5024769;28;20419;-87
2024/02/19 16:00:08;;;;;;;;;;;8.90;1.00;;;;;;5024154;28;20046;-87
2024/02/19 16:02:40;;;;;;;;;;;8.90;1.00;;;;;;5039289;28;19935;-84
2024/02/19 16:05:07;;;;;;;;;;;9.00;1.00;;;;;;5040403;28;19969;-88
2024/02/19 16:07:34;;;;;;;;;;;7.90;1.00;;;;;;5034856;28;19944;-87
2024/02/19 16:10:01;;;;;;;;;;;9.00;1.00;;;;;;5031413;28;20010;-88
2024/02/19 16:12:27;;;;;;;;;;;8.50;1.00;;;;;;5034804;28;19938;-88
2024/02/19 16:14:54;;;;;;;;;;;8.90;1.00;;;;;;5040726;28;19926;-87
2024/02/19 16:17:21;;;;;;;;;;;9.00;1.00;;;;;;5040921;28;20020;-87
2024/02/19 16:19:52;;;;;;;;;;;8.80;1.00;;;;;;5041019;28;19975;-87
2024/02/19 16:22:19;;;;;;;;;;;8.80;1.00;;;;;;5034194;28;20034;-89
2024/02/19 16:24:46;;;;;;;;;;;9.10;1.00;;;;;;5036702;28;19931;-87
2024/02/19 16:27:13;;;;;;;;;;;8.80;1.00;;;;;;5030460;28;20322;-86
2024/02/19 16:29:40;;;;;;;;;;;8.80;1.00;;;;;;5034754;28;20010;-87
2024/02/19 16:32:08;;;;;;;;;;;8.70;1.00;;;;;;5040287;28;19951;-86
2024/02/19 16:34:35;;;;;;;;;;;8.80;1.00;;;;;;5038887;28;19932;-85
2024/02/19 16:37:03;;;;;;;;;;;8.90;1.00;;;;;;5038883;28;19999;-85
2024/02/19 16:39:30;;;;;;;;;;;8.70;1.00;;;;;;5040186;28;19977;-86
2024/02/19 16:41:56;;;;;;;;;;;8.70;1.00;;;;;;5040382;28;19930;-87
2024/02/19 16:44:24;;;;;;;;;;;8.80;1.00;;;;;;5036952;28;19951;-87
2024/02/19 16:46:51;;;;;;;;;;;8.80;1.00;;;;;;5034438;28;19997;-88
2024/02/19 16:49:18;;;;;;;;;;;8.70;1.00;;;;;;5034916;28;19953;-86
2024/02/19 16:51:45;;;;;;;;;;;8.90;1.00;;;;;;5028258;28;20408;-87
2024/02/19 16:54:16;;;;;;;;;;;8.20;1.00;;;;;;5028866;28;19992;-86
2024/02/19 16:56:43;;;;;;;;;;;8.60;1.00;;;;;;5027413;28;20318;-87
2024/02/19 16:59:11;;;;;;;;;;;8.50;17.80;;;;;;5027114;28;20006;-88
2024/02/19 17:01:38;;;;;;;;;;;8.50;42.20;;;;;;5027666;28;19958;-88
2024/02/19 17:04:05;;;;;;;;;;;8.10;73.70;;;;;;5028676;28;19950;-88
2024/02/19 17:06:32;;;;;;;;;;;8.40;65.70;;;;;;5029762;28;19936;-88
2024/02/19 17:09:03;;;;;;;;;;;8.40;99.90;;;;;;5029301;28;19951;-88
2024/02/19 17:11:34;;;;;;;;;;;8.40;99.90;;;;;;5029438;28;19959;-90
2024/02/19 17:14:01;;;;;;;;;;;8.40;99.90;;;;;;5031171;28;20038;-88
2024/02/19 17:16:28;;;;;;;;;;;8.40;99.90;;;;;;5027548;28;20327;-87
2024/02/19 17:18:55;;;;;;;;;;;8.70;99.90;;;;;;5026800;28;19967;-88
2024/02/19 17:21:21;;;;;;;;;;;8.40;99.90;;;;;;5028973;28;20028;-86
2024/02/19 17:23:48;;;;;;;;;;;8.50;99.90;;;;;;5036983;28;19939;-87
2024/02/19 17:26:17;;;;;;;;;;;8.40;99.90;;;;;;5032988;28;20006;-88
2024/02/19 17:28:45;;;;;;;;;;;8.30;99.90;;;;;;5028422;28;19960;-87
2024/02/19 17:31:11;;;;;;;;;;;8.70;99.90;;;;;;5035624;28;19952;-86
2024/02/19 17:33:37;;;;;;;;;;;8.40;99.90;;;;;;5028461;28;19944;-87
2024/02/19 17:36:04;;;;;;;;;;;8.50;99.90;;;;;;5032632;28;19975;-87
2024/02/19 17:38:31;;;;;;;;;;;8.40;99.90;;;;;;5034945;28;19978;-88
2024/02/19 17:40:58;;;;;;;;;;;8.50;99.90;;;;;;5030302;28;19962;-87
2024/02/19 17:43:25;;;;;;;;;;;8.50;99.90;;;;;;5029785;28;19959;-86
2024/02/19 17:45:53;;;;;;;;;;;8.60;99.90;;;;;;5028784;28;19940;-87
2024/02/19 17:48:21;;;;;;;;;;;8.50;99.90;;;;;;5035092;28;20028;-88
2024/02/19 17:50:49;;;;;;;;;;;8.40;99.90;;;;;;5040140;28;19943;-83
2024/02/19 17:53:16;;;;;;;;;;;8.60;99.90;;;;;;5040264;28;19939;-88
2024/02/19 17:55:44;;;;;;;;;;;8.60;99.90;;;;;;5039929;28;19955;-86
2024/02/19 17:58:11;;;;;;;;;;;8.60;99.90;;;;;;5040385;28;19985;-86
2024/02/19 18:00:40;;;;;;;;;;;8.50;99.90;;;;;;5040192;28;19968;-87
2024/02/19 18:03:08;;;;;;;;;;;8.50;99.90;;;;;;5040340;28;19995;-85
2024/02/19 18:05:35;;;;;;;;;;;8.60;99.90;;;;;;5036089;28;20361;-86
2024/02/19 18:08:05;;;;;;;;;;;8.60;99.90;;;;;;5027364;28;19945;-87
2024/02/19 18:10:31;;;;;;;;;;;8.60;99.90;;;;;;5024996;28;19999;-86
2024/02/19 18:12:58;;;;;;;;;;;8.90;99.90;;;;;;5026132;28;20426;-87
2024/02/19 18:15:25;;;;;;;;;;;8.30;99.90;;;;;;5026410;28;20023;-87
2024/02/19 18:17:52;;;;;;;;;;;8.60;99.90;;;;;;5027154;28;20024;-86
2024/02/19 18:20:21;;;;;;;;;;;8.60;99.90;;;;;;5026730;28;19975;-88
2024/02/19 18:22:47;;;;;;;;;;;8.40;94.00;;;;;;5026011;28;20363;-88
2024/02/19 18:25:14;;;;;;;;;;;8.60;77.20;;;;;;5027887;28;19942;-87
2024/02/19 18:27:41;;;;;;;;;;;8.60;58.90;;;;;;5031833;28;19930;-86
2024/02/19 18:30:10;;;;;;;;;;;8.70;48.20;;;;;;5025344;28;20072;-86
2024/02/19 18:32:40;;;;;;;;;;;8.80;27.00;;;;;;5024747;28;19950;-87
2024/02/19 18:35:06;;;;;;;;;;;8.70;2.90;;;;;;5031770;28;19941;-86
2024/02/19 18:37:35;;;;;;;;;;;8.80;1.00;;;;;;5034099;28;20413;-86
2024/02/19 18:40:02;;;;;;;;;;;8.70;1.00;;;;;;5025271;28;20020;-86
2024/02/19 18:42:29;;;;;;;;;;;8.70;1.00;;;;;;5024518;28;19952;-88
2024/02/19 18:44:56;;;;;;;;;;;8.70;1.00;;;;;;5025769;28;20035;-86
2024/02/19 18:47:23;;;;;;;;;;;8.60;18.70;;;;;;5039245;28;19968;-84
2024/02/19 18:49:50;;;;;;;;;;;8.60;34.90;;;;;;5035915;28;19977;-88
2024/02/19 18:52:16;;;;;;;;;;;8.60;46.80;;;;;;5024563;28;19974;-87
2024/02/19 18:54:44;;;;;;;;;;;8.60;83.90;;;;;;5026497;28;19949;-87
2024/02/19 18:57:11;;;;;;;;;;;8.80;99.90;;;;;;5026148;28;19965;-87
2024/02/19 18:59:39;;;;;;;;;;;8.50;99.90;;;;;;5024899;28;19965;-87
2024/02/19 19:02:07;;;;;;;;;;;;;;;;;;5026466;28;19922;-87
2024/02/19 19:04:37;;;;;;;;;;;8.40;99.90;;;;;;5025822;28;19921;-87
2024/02/19 19:07:06;;;;;;;;;;;;;;;;;;5025186;28;19928;-88
2024/02/19 19:09:39;;;;;;;;;;;;;;;;;;5026586;28;19995;-87
2024/02/19 19:12:06;;;;;;;;;;;;;;;;;;5024127;28;19960;-88
2024/02/19 19:14:34;;;;;;;;;;;;;;;;;;5031113;28;19942;-88
2024/02/19 19:17:02;;;;;;;;;;;;;;;;;;5035274;28;19929;-86
2024/02/19 19:19:30;;;;;;;;;;;8.60;99.90;;;;;;5030914;28;20420;-86
2024/02/19 19:21:58;;;;;;;;;;;8.60;99.90;;;;;;5026747;28;19921;-87
2024/02/19 19:24:24;;;;;;;;;;;8.50;99.90;;;;;;5025802;28;19946;-87
2024/02/19 19:26:51;;;;;;;;;;;8.60;99.90;;;;;;5030581;28;20021;-88
2024/02/19 19:29:18;;;;;;;;;;;8.40;99.90;;;;;;5038530;28;19977;-83
2024/02/19 19:31:45;;;;;;;;;;;8.50;99.90;;;;;;5034069;28;19965;-86
2024/02/19 19:34:11;;;;;;;;;;;8.40;99.90;;;;;;5023048;28;19992;-87
2024/02/19 19:36:39;;;;;;;;;;;8.50;99.90;;;;;;5025823;28;19968;-86
2024/02/19 19:39:08;;;;;;;;;;;8.50;99.90;;;;;;5026858;28;20030;-88
2024/02/19 19:41:35;;;;;;;;;;;8.50;99.90;;;;;;5030566;28;19922;-88
2024/02/19 19:44:05;;;;;;;;;;;8.50;99.90;;;;;;5027268;28;20011;-87
2024/02/19 19:46:31;;;;;;;;;;;8.50;99.90;;;;;;5027190;28;19960;-87
2024/02/19 19:48:58;;;;;;;;;;;8.70;99.90;;;;;;5038209;28;19941;-88
2024/02/19 19:51:25;;;;;;;;;;;8.50;99.90;;;;;;5041608;28;19940;-85
2024/02/19 19:53:53;;;;;;;;;;;8.50;99.90;;;;;;5041551;28;19941;-87
2024/02/19 19:56:19;;;;;;;;;;;8.60;99.90;;;;;;5041594;28;19963;-85
2024/02/19 19:58:46;;;;;;;;;;;8.80;99.90;;;;;;5042737;28;19974;-87
2024/02/19 20:01:13;;;;;;;;;;;8.50;99.90;;;;;;5035636;28;19964;-86
2024/02/19 20:03:39;;;;;;;;;;;8.60;99.90;;;;;;5030749;28;20046;-89
2024/02/19 20:06:06;;;;;;;;;;;8.60;99.90;;;;;;5026690;28;19949;-88
2024/02/19 20:08:33;;;;;;;;;;;8.50;99.90;;;;;;5027406;28;19941;-88
2024/02/19 20:11:01;;;;;;;;;;;8.60;99.90;;;;;;5026629;28;20005;-89
2024/02/19 20:13:28;;;;;;;;;;;8.60;99.90;;;;;;5027284;28;20002;-88
2024/02/19 20:15:55;;;;;;;;;;;8.60;99.90;;;;;;5027237;28;19999;-87
2024/02/19 20:18:23;;;;;;;;;;;8.40;99.90;;;;;;5026331;28;20015;-87
2024/02/19 20:20:50;;;;;;;;;;;8.60;99.90;;;;;;5024756;28;20021;-89
2024/02/19 20:23:18;;;;;;;;;;;8.70;99.90;;;;;;5023775;28;19947;-88
2024/02/19 20:25:45;;;;;;;;;;;8.60;99.90;;;;;;5023295;28;19980;-88
2024/02/19 20:28:13;;;;;;;;;;;8.60;99.90;;;;;;5022442;28;19942;-86
2024/02/19 20:30:39;;;;;;;;;;;8.60;99.90;;;;;;5024116;28;20046;-87
2024/02/19 20:33:06;;;;;;;;;;;8.60;99.90;;;;;;5024174;28;19960;-88
2024/02/19 20:35:33;;;;;;;;;;;8.70;99.90;;;;;;5024952;28;20005;-85
2024/02/19 20:37:59;;;;;;;;;;;8.60;99.90;;;;;;5041693;28;19931;-84
2024/02/19 20:40:26;;;;;;;;;;;8.40;99.90;;;;;;5041789;28;19949;-86
2024/02/19 20:42:55;;;;;;;;;;;8.70;99.90;;;;;;5026193;28;19982;-86
2024/02/19 20:45:23;;;;;;;;;;;8.70;99.90;;;;;;5023139;28;19941;-86
2024/02/19 20:47:50;;;;;;;;;;;8.70;99.90;;;;;;5026323;28;19991;-86
2024/02/19 20:50:17;;;;;;;;;;;9.10;99.90;;;;;;5028673;28;19957;-86
2024/02/19 20:52:44;;;;;;;;;;;8.70;99.90;;;;;;5038942;28;19945;-87
2024/02/19 20:55:11;;;;;;;;;;;8.70;99.90;;;;;;5038213;28;19939;-87
2024/02/19 20:57:38;;;;;;;;;;;8.70;99.90;;;;;;5036643;28;19928;-87
2024/02/19 21:00:06;;;;;;;;;;;8.80;99.90;;;;;;5037173;28;19957;-86
2024/02/19 21:02:34;;;;;;;;;;;8.70;99.90;;;;;;5016608;28;19943;-87
2024/02/19 21:05:01;;;;;;;;;;;8.60;99.90;;;;;;5024083;28;20007;-86
2024/02/19 21:07:27;;;;;;;;;;;8.80;99.90;;;;;;5030606;28;19939;-87
2024/02/19 22:14:55;;;;;;;;;;;;;;;;;;4981635;23;19941;-87
2024/02/19 22:17:22;;;;;;;;;;;;;;;;;;5035353;28;19967;-87
2024/02/19 22:19:50;;;;;;;;;;;;;;;;;;5033300;28;19948;-88
2024/02/19 22:22:17;;;;;;;;;;;;;;;;;;5033547;28;19944;-87
2024/02/19 22:24:44;;;;;;;;;;;;;;;;;;5036831;28;19999;-88
2024/02/19 22:27:12;;;;;;;;;;;;;;;;;;5033303;28;19994;-88
2024/02/19 22:29:40;;;;;;;;;;;;;;;;;;5023769;28;19937;-88
2024/02/19 22:32:07;;;;;;;;;;;;;;;;;;5023820;28;20027;-89
2024/02/19 22:34:34;;;;;;;;;;;;;;;;;;5021659;28;19960;-88
2024/02/19 22:37:02;;;;;;;;;;;;;;;;;;5021897;28;19926;-88
2024/02/19 22:39:30;;;;;;;;;;;;;;;;;;5021812;28;19948;-88
2024/02/19 22:41:57;;;;;;;;;;;;;;;;;;5023146;28;19955;-88
2024/02/19 22:44:24;;;;;;;;;;;;;;;;;;5034139;28;19943;-86
2024/02/19 22:46:51;;;;;;;;;;;;;;;;;;5025569;28;19949;-87
2024/02/19 22:49:19;;;;;;;;;;;;;;;;;;5021422;28;19963;-88
2024/02/19 22:51:46;;;;;;;;;;;;;;;;;;5033997;28;19951;-88
2024/02/19 22:54:13;;;;;;;;;;;;;;;;;;5038687;28;19958;-87
2024/02/19 22:56:41;;;;;;;;;;;;;;;;;;5035790;28;19925;-87
2024/02/19 22:59:11;;;;;;;;;;;;;;;;;;5029952;28;19965;-87
2024/02/19 23:01:38;;;;;;;;;;;;;;;;;;5023979;28;19936;-87
2024/02/19 23:04:05;;;;;;;;;;;;;;;;;;5020720;28;19985;-88
2024/02/19 23:06:35;;;;;;;;;;;;;;;;;;5033167;28;19983;-87
2024/02/19 23:09:03;;;;;;;;;;;;;;;;;;5026553;28;19978;-87
2024/02/19 23:11:29;;;;;;;;;;;;;;;;;;5020965;28;19990;-87
2024/02/19 23:13:57;;;;;;;;;;;;;;;;;;5037884;28;19968;-84
2024/02/19 23:16:24;;;;;;;;;;;;;;;;;;5036408;28;19921;-87
2024/02/19 23:18:51;;;;;;;;;;;;;;;;;;5019385;28;19996;-87
2024/02/19 23:21:18;;;;;;;;;;;;;;;;;;5029327;28;19939;-87
2024/02/19 23:23:45;;;;;;;;;;;;;;;;;;5035663;28;19938;-87
2024/02/19 23:26:13;;;;;;;;;;;;;;;;;;5027807;28;20051;-87
2024/02/19 23:28:39;;;;;;;;;;;;;;;;;;5018060;28;20310;-87
2024/02/19 23:31:06;;;;;;;;;;;;;;;;;;5021083;28;19940;-87
2024/02/19 23:33:33;;;;;;;;;;;;;;;;;;5019170;28;19929;-86
2024/02/19 23:36:00;;;;;;;;;;;;;;;;;;5018526;28;19922;-87
2024/02/19 23:38:28;;;;;;;;;;;;;;;;;;5035022;28;20106;-86
2024/02/19 23:40:55;;;;;;;;;;;;;;;;;;5035347;28;19956;-87
2024/02/19 23:43:22;;;;;;;;;;;;;;;;;;5035203;28;20353;-87
2024/02/19 23:45:49;;;;;;;;;;;;;;;;;;5022311;28;19945;-87
2024/02/19 23:48:17;;;;;;;;;;;;;;;;;;5039190;28;19952;-86
2024/02/19 23:50:44;;;;;;;;;;;;;;;;;;5037354;28;19965;-87
2024/02/19 23:53:11;;;;;;;;;;;;;;;;;;5018922;28;19978;-87
2024/02/19 23:55:38;;;;;;;;;;;;;;;;;;5018818;28;19974;-87
2024/02/19 23:58:05;;;;;;;;;;;;;;;;;;5019071;28;20000;-87
